sensor_id;sensor_type;location;lat;lon;timestamp;temperature;humidity
3784;DHT22;1907;49.238;9.262;2022-07-04T00:00:43;18.60;99.90
3784;DHT22;1907;49.238;9.262;2022-07-04T00:03:08;18.60;99.90
3784;DHT22;1907;49.238;9.262;2022-07-04T00:05:34;18.60;99.90
3784;DHT22;1907;49.238;9.262;2022-07-04T00:07:59;18.60;99.90
3784;DHT22;1907;49.238;9.262;2022-07-04T00:10:25;18.60;99.90
3784;DHT22;1907;49.238;9.262;2022-07-04T00:12:51;18.70;99.90
3784;DHT22;1907;49.238;9.262;2022-07-04T00:15:16;18.70;99.90
3784;DHT22;1907;49.238;9.262;2022-07-04T00:17:42;18.70;99.90
3784;DHT22;1907;49.238;9.262;2022-07-04T00:20:09;18.70;99.90
3784;DHT22;1907;49.238;9.262;2022-07-04T00:22:35;18.70;99.90
3784;DHT22;1907;49.238;9.262;2022-07-04T00:25:01;18.70;99.90
3784;DHT22;1907;49.238;9.262;2022-07-04T00:27:27;18.70;99.90
3784;DHT22;1907;49.238;9.262;2022-07-04T00:29:53;18.70;99.90
3784;DHT22;1907;49.238;9.262;2022-07-04T00:32:18;18.70;99.90
3784;DHT22;1907;49.238;9.262;2022-07-04T00:34:44;18.60;99.90
3784;DHT22;1907;49.238;9.262;2022-07-04T00:37:10;18.50;99.90
3784;DHT22;1907;49.238;9.262;2022-07-04T00:39:36;18.50;99.90
3784;DHT22;1907;49.238;9.262;2022-07-04T00:42:02;18.40;99.90
3784;DHT22;1907;49.238;9.262;2022-07-04T00:44:28;18.40;99.90
3784;DHT22;1907;49.238;9.262;2022-07-04T00:46:55;18.40;99.90
3784;DHT22;1907;49.238;9.262;2022-07-04T00:49:20;18.40;99.90
3784;DHT22;1907;49.238;9.262;2022-07-04T00:51:46;18.50;99.90
3784;DHT22;1907;49.238;9.262;2022-07-04T00:54:15;18.60;99.90
3784;DHT22;1907;49.238;9.262;2022-07-04T00:56:42;18.60;99.90
3784;DHT22;1907;49.238;9.262;2022-07-04T00:59:09;18.60;99.90
3784;DHT22;1907;49.238;9.262;2022-07-04T01:01:35;18.70;99.90
3784;DHT22;1907;49.238;9.262;2022-07-04T01:04:03;18.70;99.90
3784;DHT22;1907;49.238;9.262;2022-07-04T01:06:29;18.70;99.90
3784;DHT22;1907;49.238;9.262;2022-07-04T01:08:55;18.80;99.90
3784;DHT22;1907;49.238;9.262;2022-07-04T01:11:21;18.80;99.90
3784;DHT22;1907;49.238;9.262;2022-07-04T01:13:47;18.80;99.90
3784;DHT22;1907;49.238;9.262;2022-07-04T01:16:13;18.80;99.90
3784;DHT22;1907;49.238;9.262;2022-07-04T01:18:39;18.70;99.90
3784;DHT22;1907;49.238;9.262;2022-07-04T01:21:06;18.60;99.90
3784;DHT22;1907;49.238;9.262;2022-07-04T01:23:35;18.60;99.90
3784;DHT22;1907;49.238;9.262;2022-07-04T01:26:02;18.60;99.90
3784;DHT22;1907;49.238;9.262;2022-07-04T01:28:28;18.60;99.90
3784;DHT22;1907;49.238;9.262;2022-07-04T01:30:53;18.60;99.90
3784;DHT22;1907;49.238;9.262;2022-07-04T01:33:19;18.50;99.90
3784;DHT22;1907;49.238;9.262;2022-07-04T01:35:45;18.50;99.90
3784;DHT22;1907;49.238;9.262;2022-07-04T01:38:11;18.40;99.90
3784;DHT22;1907;49.238;9.262;2022-07-04T01:40:37;18.40;99.90
3784;DHT22;1907;49.238;9.262;2022-07-04T01:43:03;18.40;99.90
3784;DHT22;1907;49.238;9.262;2022-07-04T01:45:28;18.40;99.90
3784;DHT22;1907;49.238;9.262;2022-07-04T01:47:54;18.40;99.90
3784;DHT22;1907;49.238;9.262;2022-07-04T01:50:20;18.30;99.90
3784;DHT22;1907;49.238;9.262;2022-07-04T01:52:47;18.30;99.90
3784;DHT22;1907;49.238;9.262;2022-07-04T01:55:13;18.30;99.90
3784;DHT22;1907;49.238;9.262;2022-07-04T01:57:39;18.20;99.90
3784;DHT22;1907;49.238;9.262;2022-07-04T02:00:06;18.20;99.90
3784;DHT22;1907;49.238;9.262;2022-07-04T02:02:51;18.10;99.90
3784;DHT22;1907;49.238;9.262;2022-07-04T02:05:17;18.00;99.90
3784;DHT22;1907;49.238;9.262;2022-07-04T02:07:43;18.00;99.90
3784;DHT22;1907;49.238;9.262;2022-07-04T02:10:09;17.90;99.90
3784;DHT22;1907;49.238;9.262;2022-07-04T02:12:35;17.90;99.90
3784;DHT22;1907;49.238;9.262;2022-07-04T02:15:19;17.80;99.90
3784;DHT22;1907;49.238;9.262;2022-07-04T02:17:45;17.80;99.90
3784;DHT22;1907;49.238;9.262;2022-07-04T02:20:11;17.70;99.90
3784;DHT22;1907;49.238;9.262;2022-07-04T02:22:36;17.70;99.90
3784;DHT22;1907;49.238;9.262;2022-07-04T02:25:03;17.70;99.90
3784;DHT22;1907;49.238;9.262;2022-07-04T02:27:29;17.70;99.90
3784;DHT22;1907;49.238;9.262;2022-07-04T02:29:54;17.70;99.90
3784;DHT22;1907;49.238;9.262;2022-07-04T02:32:20;17.60;99.90
3784;DHT22;1907;49.238;9.262;2022-07-04T02:34:45;17.60;99.90
3784;DHT22;1907;49.238;9.262;2022-07-04T02:37:11;17.60;99.90
3784;DHT22;1907;49.238;9.262;2022-07-04T02:39:37;17.60;99.90
3784;DHT22;1907;49.238;9.262;2022-07-04T02:42:02;17.60;99.90
3784;DHT22;1907;49.238;9.262;2022-07-04T02:44:28;17.60;99.90
3784;DHT22;1907;49.238;9.262;2022-07-04T02:46:54;17.60;99.90
3784;DHT22;1907;49.238;9.262;2022-07-04T02:49:20;17.50;99.90
3784;DHT22;1907;49.238;9.262;2022-07-04T02:51:45;17.50;99.90
3784;DHT22;1907;49.238;9.262;2022-07-04T02:54:11;17.50;99.90
3784;DHT22;1907;49.238;9.262;2022-07-04T02:56:37;17.50;99.90
3784;DHT22;1907;49.238;9.262;2022-07-04T02:59:02;17.40;99.90
3784;DHT22;1907;49.238;9.262;2022-07-04T03:01:28;17.40;99.90
3784;DHT22;1907;49.238;9.262;2022-07-04T03:03:54;17.40;99.90
3784;DHT22;1907;49.238;9.262;2022-07-04T03:06:19;17.30;99.90
3784;DHT22;1907;49.238;9.262;2022-07-04T03:08:45;17.30;99.90
3784;DHT22;1907;49.238;9.262;2022-07-04T03:11:11;17.30;99.90
3784;DHT22;1907;49.238;9.262;2022-07-04T03:13:38;17.30;99.90
3784;DHT22;1907;49.238;9.262;2022-07-04T03:16:04;17.40;99.90
3784;DHT22;1907;49.238;9.262;2022-07-04T03:18:30;17.40;99.90
3784;DHT22;1907;49.238;9.262;2022-07-04T03:20:55;17.40;99.90
3784;DHT22;1907;49.238;9.262;2022-07-04T03:23:21;17.40;99.90
3784;DHT22;1907;49.238;9.262;2022-07-04T03:25:47;17.40;99.90
3784;DHT22;1907;49.238;9.262;2022-07-04T03:28:12;17.40;99.90
3784;DHT22;1907;49.238;9.262;2022-07-04T03:30:38;17.40;99.90
3784;DHT22;1907;49.238;9.262;2022-07-04T03:33:04;17.40;99.90
3784;DHT22;1907;49.238;9.262;2022-07-04T03:35:29;17.30;99.90
3784;DHT22;1907;49.238;9.262;2022-07-04T03:37:55;17.30;99.90
3784;DHT22;1907;49.238;9.262;2022-07-04T03:40:21;17.30;99.90
3784;DHT22;1907;49.238;9.262;2022-07-04T03:42:47;17.30;99.90
3784;DHT22;1907;49.238;9.262;2022-07-04T03:45:13;17.20;99.90
3784;DHT22;1907;49.238;9.262;2022-07-04T03:47:39;17.20;99.90
3784;DHT22;1907;49.238;9.262;2022-07-04T03:50:05;17.20;99.90
3784;DHT22;1907;49.238;9.262;2022-07-04T03:52:31;17.20;99.90
3784;DHT22;1907;49.238;9.262;2022-07-04T03:54:56;17.20;99.90
3784;DHT22;1907;49.238;9.262;2022-07-04T03:57:22;17.20;99.90
3784;DHT22;1907;49.238;9.262;2022-07-04T03:59:47;17.20;99.90
3784;DHT22;1907;49.238;9.262;2022-07-04T04:02:13;17.20;99.90
3784;DHT22;1907;49.238;9.262;2022-07-04T04:04:39;17.20;99.90
3784;DHT22;1907;49.238;9.262;2022-07-04T04:07:23;17.20;99.90
3784;DHT22;1907;49.238;9.262;2022-07-04T04:09:49;17.30;99.90
3784;DHT22;1907;49.238;9.262;2022-07-04T04:12:14;17.40;99.90
3784;DHT22;1907;49.238;9.262;2022-07-04T04:14:40;17.50;99.90
3784;DHT22;1907;49.238;9.262;2022-07-04T04:17:05;17.80;99.90
3784;DHT22;1907;49.238;9.262;2022-07-04T04:19:31;18.10;99.90
3784;DHT22;1907;49.238;9.262;2022-07-04T04:21:57;18.30;99.90
3784;DHT22;1907;49.238;9.262;2022-07-04T04:24:22;18.50;99.90
3784;DHT22;1907;49.238;9.262;2022-07-04T04:26:48;19.10;99.90
3784;DHT22;1907;49.238;9.262;2022-07-04T04:29:14;19.40;99.90
3784;DHT22;1907;49.238;9.262;2022-07-04T04:31:39;19.70;99.90
3784;DHT22;1907;49.238;9.262;2022-07-04T04:34:05;20.30;99.90
3784;DHT22;1907;49.238;9.262;2022-07-04T04:36:31;21.40;99.90
3784;DHT22;1907;49.238;9.262;2022-07-04T04:38:56;22.00;99.90
3784;DHT22;1907;49.238;9.262;2022-07-04T04:41:22;23.10;99.90
3784;DHT22;1907;49.238;9.262;2022-07-04T04:43:48;24.40;99.90
3784;DHT22;1907;49.238;9.262;2022-07-04T04:46:13;25.10;99.90
3784;DHT22;1907;49.238;9.262;2022-07-04T04:48:39;25.70;99.90
3784;DHT22;1907;49.238;9.262;2022-07-04T04:51:05;26.50;99.90
3784;DHT22;1907;49.238;9.262;2022-07-04T04:53:31;27.50;99.90
3784;DHT22;1907;49.238;9.262;2022-07-04T04:55:57;28.30;99.90
3784;DHT22;1907;49.238;9.262;2022-07-04T04:58:23;28.60;97.90
3784;DHT22;1907;49.238;9.262;2022-07-04T05:00:48;29.20;97.70
3784;DHT22;1907;49.238;9.262;2022-07-04T05:03:18;30.40;95.90
3784;DHT22;1907;49.238;9.262;2022-07-04T05:05:44;30.90;93.80
3784;DHT22;1907;49.238;9.262;2022-07-04T05:08:10;29.40;94.60
3784;DHT22;1907;49.238;9.262;2022-07-04T05:10:38;29.00;95.60
3784;DHT22;1907;49.238;9.262;2022-07-04T05:13:03;29.60;95.00
3784;DHT22;1907;49.238;9.262;2022-07-04T05:15:29;30.40;93.90
3784;DHT22;1907;49.238;9.262;2022-07-04T05:17:55;30.80;92.70
3784;DHT22;1907;49.238;9.262;2022-07-04T05:20:23;30.30;92.80
3784;DHT22;1907;49.238;9.262;2022-07-04T05:22:48;30.10;93.00
3784;DHT22;1907;49.238;9.262;2022-07-04T05:25:14;29.00;93.90
3784;DHT22;1907;49.238;9.262;2022-07-04T05:27:40;28.40;95.30
3784;DHT22;1907;49.238;9.262;2022-07-04T05:30:06;29.30;94.60
3784;DHT22;1907;49.238;9.262;2022-07-04T05:32:32;30.60;93.60
3784;DHT22;1907;49.238;9.262;2022-07-04T05:34:58;31.70;92.50
3784;DHT22;1907;49.238;9.262;2022-07-04T05:37:24;32.30;90.70
3784;DHT22;1907;49.238;9.262;2022-07-04T05:39:50;32.40;88.10
3784;DHT22;1907;49.238;9.262;2022-07-04T05:42:16;32.70;85.60
3784;DHT22;1907;49.238;9.262;2022-07-04T05:44:41;33.60;84.20
3784;DHT22;1907;49.238;9.262;2022-07-04T05:47:07;34.70;82.20
3784;DHT22;1907;49.238;9.262;2022-07-04T05:49:33;34.90;78.60
3784;DHT22;1907;49.238;9.262;2022-07-04T05:51:59;34.60;78.20
3784;DHT22;1907;49.238;9.262;2022-07-04T05:54:24;35.00;78.40
3784;DHT22;1907;49.238;9.262;2022-07-04T05:56:50;35.50;77.60
3784;DHT22;1907;49.238;9.262;2022-07-04T05:59:15;35.80;76.80
3784;DHT22;1907;49.238;9.262;2022-07-04T06:01:41;35.30;74.60
3784;DHT22;1907;49.238;9.262;2022-07-04T06:04:07;35.20;74.00
3784;DHT22;1907;49.238;9.262;2022-07-04T06:06:33;35.60;74.30
3784;DHT22;1907;49.238;9.262;2022-07-04T06:08:59;35.90;71.10
3784;DHT22;1907;49.238;9.262;2022-07-04T06:11:25;36.20;71.00
3784;DHT22;1907;49.238;9.262;2022-07-04T06:13:50;36.10;69.20
3784;DHT22;1907;49.238;9.262;2022-07-04T06:16:16;35.90;70.60
3784;DHT22;1907;49.238;9.262;2022-07-04T06:18:42;36.10;68.80
3784;DHT22;1907;49.238;9.262;2022-07-04T06:21:08;35.60;69.60
3784;DHT22;1907;49.238;9.262;2022-07-04T06:23:34;35.30;71.60
3784;DHT22;1907;49.238;9.262;2022-07-04T06:26:01;35.70;70.60
3784;DHT22;1907;49.238;9.262;2022-07-04T06:28:27;36.30;70.60
3784;DHT22;1907;49.238;9.262;2022-07-04T06:30:53;35.70;70.40
3784;DHT22;1907;49.238;9.262;2022-07-04T06:33:18;35.80;69.70
3784;DHT22;1907;49.238;9.262;2022-07-04T06:35:44;35.00;71.70
3784;DHT22;1907;49.238;9.262;2022-07-04T06:38:15;34.30;72.90
3784;DHT22;1907;49.238;9.262;2022-07-04T06:40:40;34.60;71.80
3784;DHT22;1907;49.238;9.262;2022-07-04T06:43:06;35.30;70.50
3784;DHT22;1907;49.238;9.262;2022-07-04T06:45:32;35.90;70.00
3784;DHT22;1907;49.238;9.262;2022-07-04T06:48:03;36.70;69.80
3784;DHT22;1907;49.238;9.262;2022-07-04T06:50:29;35.90;69.30
3784;DHT22;1907;49.238;9.262;2022-07-04T06:53:02;35.40;70.70
3784;DHT22;1907;49.238;9.262;2022-07-04T06:55:39;35.80;70.00
3784;DHT22;1907;49.238;9.262;2022-07-04T06:58:06;36.80;68.20
3784;DHT22;1907;49.238;9.262;2022-07-04T07:00:32;36.40;68.50
3784;DHT22;1907;49.238;9.262;2022-07-04T07:03:00;35.70;69.30
3784;DHT22;1907;49.238;9.262;2022-07-04T07:05:26;36.60;68.20
3784;DHT22;1907;49.238;9.262;2022-07-04T07:07:52;37.60;67.50
3784;DHT22;1907;49.238;9.262;2022-07-04T07:10:18;37.60;67.30
3784;DHT22;1907;49.238;9.262;2022-07-04T07:12:45;38.00;66.00
3784;DHT22;1907;49.238;9.262;2022-07-04T07:15:10;38.40;64.80
3784;DHT22;1907;49.238;9.262;2022-07-04T07:17:36;38.70;65.50
3784;DHT22;1907;49.238;9.262;2022-07-04T07:20:03;37.50;66.20
3784;DHT22;1907;49.238;9.262;2022-07-04T07:22:28;36.40;67.00
3784;DHT22;1907;49.238;9.262;2022-07-04T07:24:54;36.00;67.90
3784;DHT22;1907;49.238;9.262;2022-07-04T07:27:20;36.40;67.80
3784;DHT22;1907;49.238;9.262;2022-07-04T07:29:46;36.00;68.10
3784;DHT22;1907;49.238;9.262;2022-07-04T07:32:11;35.90;68.50
3784;DHT22;1907;49.238;9.262;2022-07-04T07:34:37;35.80;69.60
3784;DHT22;1907;49.238;9.262;2022-07-04T07:37:03;35.20;69.70
3784;DHT22;1907;49.238;9.262;2022-07-04T07:39:29;34.70;69.70
3784;DHT22;1907;49.238;9.262;2022-07-04T07:41:54;35.00;68.50
3784;DHT22;1907;49.238;9.262;2022-07-04T07:44:20;35.40;68.70
3784;DHT22;1907;49.238;9.262;2022-07-04T07:46:46;36.50;68.60
3784;DHT22;1907;49.238;9.262;2022-07-04T07:49:11;36.80;67.50
3784;DHT22;1907;49.238;9.262;2022-07-04T07:51:37;36.80;68.30
3784;DHT22;1907;49.238;9.262;2022-07-04T07:54:03;37.30;65.00
3784;DHT22;1907;49.238;9.262;2022-07-04T07:56:28;37.10;65.70
3784;DHT22;1907;49.238;9.262;2022-07-04T07:58:54;37.10;66.30
3784;DHT22;1907;49.238;9.262;2022-07-04T08:01:20;37.50;66.90
3784;DHT22;1907;49.238;9.262;2022-07-04T08:03:46;37.40;66.00
3784;DHT22;1907;49.238;9.262;2022-07-04T08:06:30;37.00;66.30
3784;DHT22;1907;49.238;9.262;2022-07-04T08:08:56;35.70;67.80
3784;DHT22;1907;49.238;9.262;2022-07-04T08:11:21;34.50;69.30
3784;DHT22;1907;49.238;9.262;2022-07-04T08:13:47;34.10;69.60
3784;DHT22;1907;49.238;9.262;2022-07-04T08:16:12;33.30;72.00
3784;DHT22;1907;49.238;9.262;2022-07-04T08:18:38;32.50;71.50
3784;DHT22;1907;49.238;9.262;2022-07-04T08:21:04;31.20;74.60
3784;DHT22;1907;49.238;9.262;2022-07-04T08:23:32;30.50;77.60
3784;DHT22;1907;49.238;9.262;2022-07-04T08:25:58;30.40;77.20
3784;DHT22;1907;49.238;9.262;2022-07-04T08:28:25;29.90;77.70
3784;DHT22;1907;49.238;9.262;2022-07-04T08:30:51;29.30;79.30
3784;DHT22;1907;49.238;9.262;2022-07-04T08:33:17;29.10;80.90
3784;DHT22;1907;49.238;9.262;2022-07-04T08:35:42;29.00;78.10
3784;DHT22;1907;49.238;9.262;2022-07-04T08:38:08;28.40;79.70
3784;DHT22;1907;49.238;9.262;2022-07-04T08:40:34;28.40;79.60
3784;DHT22;1907;49.238;9.262;2022-07-04T08:43:02;28.40;81.10
3784;DHT22;1907;49.238;9.262;2022-07-04T08:45:32;28.00;81.10
3784;DHT22;1907;49.238;9.262;2022-07-04T08:48:02;27.80;81.40
3784;DHT22;1907;49.238;9.262;2022-07-04T08:50:33;27.80;81.60
3784;DHT22;1907;49.238;9.262;2022-07-04T08:53:19;27.60;82.20
3784;DHT22;1907;49.238;9.262;2022-07-04T08:55:46;27.50;83.10
3784;DHT22;1907;49.238;9.262;2022-07-04T08:58:30;27.80;84.80
3784;DHT22;1907;49.238;9.262;2022-07-04T09:01:06;28.20;83.30
3784;DHT22;1907;49.238;9.262;2022-07-04T09:03:50;28.50;81.60
3784;DHT22;1907;49.238;9.262;2022-07-04T09:06:16;28.70;80.20
3784;DHT22;1907;49.238;9.262;2022-07-04T09:08:42;28.40;79.70
3784;DHT22;1907;49.238;9.262;2022-07-04T09:11:08;28.20;81.40
3784;DHT22;1907;49.238;9.262;2022-07-04T09:13:34;28.10;81.20
3784;DHT22;1907;49.238;9.262;2022-07-04T09:16:01;27.70;81.70
3784;DHT22;1907;49.238;9.262;2022-07-04T09:18:32;27.40;82.30
3784;DHT22;1907;49.238;9.262;2022-07-04T09:21:00;27.60;82.80
3784;DHT22;1907;49.238;9.262;2022-07-04T09:23:32;27.90;81.80
3784;DHT22;1907;49.238;9.262;2022-07-04T09:26:18;28.30;80.00
3784;DHT22;1907;49.238;9.262;2022-07-04T09:28:57;28.70;79.50
3784;DHT22;1907;49.238;9.262;2022-07-04T09:31:27;28.80;79.10
3784;DHT22;1907;49.238;9.262;2022-07-04T09:33:55;28.50;79.30
3784;DHT22;1907;49.238;9.262;2022-07-04T09:36:33;28.40;79.50
3784;DHT22;1907;49.238;9.262;2022-07-04T09:44:22;27.80;80.80
3784;DHT22;1907;49.238;9.262;2022-07-04T09:46:48;27.90;83.40
3784;DHT22;1907;49.238;9.262;2022-07-04T09:49:14;28.10;81.60
3784;DHT22;1907;49.238;9.262;2022-07-04T09:51:47;28.10;80.10
3784;DHT22;1907;49.238;9.262;2022-07-04T09:56:48;27.40;80.30
3784;DHT22;1907;49.238;9.262;2022-07-04T09:59:14;27.10;81.30
3784;DHT22;1907;49.238;9.262;2022-07-04T10:01:41;27.20;81.20
3784;DHT22;1907;49.238;9.262;2022-07-04T10:04:07;27.10;81.00
3784;DHT22;1907;49.238;9.262;2022-07-04T10:06:33;27.50;80.20
3784;DHT22;1907;49.238;9.262;2022-07-04T10:11:36;28.00;79.30
3784;DHT22;1907;49.238;9.262;2022-07-04T10:14:04;28.20;82.30
3784;DHT22;1907;49.238;9.262;2022-07-04T10:16:31;28.40;79.60
3784;DHT22;1907;49.238;9.262;2022-07-04T10:18:57;28.80;81.70
3784;DHT22;1907;49.238;9.262;2022-07-04T10:21:23;29.00;79.60
3784;DHT22;1907;49.238;9.262;2022-07-04T10:23:50;29.20;79.20
3784;DHT22;1907;49.238;9.262;2022-07-04T10:26:20;29.20;78.30
3784;DHT22;1907;49.238;9.262;2022-07-04T10:28:46;29.30;78.80
3784;DHT22;1907;49.238;9.262;2022-07-04T10:31:15;29.50;79.40
3784;DHT22;1907;49.238;9.262;2022-07-04T10:33:42;29.50;78.30
3784;DHT22;1907;49.238;9.262;2022-07-04T10:36:20;29.50;78.90
3784;DHT22;1907;49.238;9.262;2022-07-04T10:41:22;29.90;78.10
3784;DHT22;1907;49.238;9.262;2022-07-04T10:46:32;30.00;77.50
3784;DHT22;1907;49.238;9.262;2022-07-04T10:49:05;30.00;77.10
3784;DHT22;1907;49.238;9.262;2022-07-04T10:51:32;29.70;77.70
3784;DHT22;1907;49.238;9.262;2022-07-04T10:58:51;31.00;73.30
3784;DHT22;1907;49.238;9.262;2022-07-04T11:01:17;30.90;76.00
3784;DHT22;1907;49.238;9.262;2022-07-04T11:03:46;31.20;75.40
3784;DHT22;1907;49.238;9.262;2022-07-04T11:09:23;32.00;73.20
3784;DHT22;1907;49.238;9.262;2022-07-04T11:12:03;32.50;73.60
3784;DHT22;1907;49.238;9.262;2022-07-04T11:14:34;32.60;74.60
3784;DHT22;1907;49.238;9.262;2022-07-04T11:17:01;32.60;73.80
3784;DHT22;1907;49.238;9.262;2022-07-04T11:19:27;32.20;72.40
3784;DHT22;1907;49.238;9.262;2022-07-04T11:21:54;31.30;72.20
3784;DHT22;1907;49.238;9.262;2022-07-04T11:24:21;30.70;73.40
3784;DHT22;1907;49.238;9.262;2022-07-04T11:26:47;30.40;74.30
3784;DHT22;1907;49.238;9.262;2022-07-04T11:29:13;31.00;73.90
3784;DHT22;1907;49.238;9.262;2022-07-04T11:31:41;31.60;73.60
3784;DHT22;1907;49.238;9.262;2022-07-04T11:34:08;32.20;73.90
3784;DHT22;1907;49.238;9.262;2022-07-04T11:36:34;32.10;72.70
3784;DHT22;1907;49.238;9.262;2022-07-04T11:39:02;31.90;73.60
3784;DHT22;1907;49.238;9.262;2022-07-04T11:44:19;31.40;75.10
3784;DHT22;1907;49.238;9.262;2022-07-04T11:49:32;30.90;74.10
3784;DHT22;1907;49.238;9.262;2022-07-04T11:51:58;30.50;75.30
3784;DHT22;1907;49.238;9.262;2022-07-04T11:54:24;30.20;76.20
3784;DHT22;1907;49.238;9.262;2022-07-04T11:56:49;30.00;74.80
3784;DHT22;1907;49.238;9.262;2022-07-04T11:59:16;29.90;76.70
3784;DHT22;1907;49.238;9.262;2022-07-04T12:01:43;29.80;76.10
3784;DHT22;1907;49.238;9.262;2022-07-04T12:04:19;29.80;76.40
3784;DHT22;1907;49.238;9.262;2022-07-04T12:06:47;29.80;75.60
3784;DHT22;1907;49.238;9.262;2022-07-04T12:09:14;29.90;76.30
3784;DHT22;1907;49.238;9.262;2022-07-04T12:11:57;30.10;76.00
3784;DHT22;1907;49.238;9.262;2022-07-04T12:14:24;30.30;77.30
3784;DHT22;1907;49.238;9.262;2022-07-04T12:17:28;30.30;76.20
3784;DHT22;1907;49.238;9.262;2022-07-04T12:19:56;30.30;74.80
3784;DHT22;1907;49.238;9.262;2022-07-04T12:24:52;30.30;75.80
3784;DHT22;1907;49.238;9.262;2022-07-04T12:27:18;30.30;75.10
3784;DHT22;1907;49.238;9.262;2022-07-04T12:29:49;30.00;74.50
3784;DHT22;1907;49.238;9.262;2022-07-04T12:32:15;29.90;76.40
3784;DHT22;1907;49.238;9.262;2022-07-04T12:34:41;29.70;75.80
3784;DHT22;1907;49.238;9.262;2022-07-04T12:37:11;29.50;75.50
3784;DHT22;1907;49.238;9.262;2022-07-04T12:39:38;29.50;74.20
3784;DHT22;1907;49.238;9.262;2022-07-04T12:42:16;29.40;75.60
3784;DHT22;1907;49.238;9.262;2022-07-04T12:44:44;29.60;74.90
3784;DHT22;1907;49.238;9.262;2022-07-04T12:47:10;29.80;74.50
3784;DHT22;1907;49.238;9.262;2022-07-04T12:49:41;29.80;74.50
3784;DHT22;1907;49.238;9.262;2022-07-04T12:52:13;29.70;75.20
3784;DHT22;1907;49.238;9.262;2022-07-04T12:54:39;29.70;76.00
3784;DHT22;1907;49.238;9.262;2022-07-04T12:57:13;29.80;75.50
3784;DHT22;1907;49.238;9.262;2022-07-04T12:59:41;29.70;75.40
3784;DHT22;1907;49.238;9.262;2022-07-04T13:02:08;29.70;74.40
3784;DHT22;1907;49.238;9.262;2022-07-04T13:04:34;29.70;74.70
3784;DHT22;1907;49.238;9.262;2022-07-04T13:07:15;29.60;76.00
3784;DHT22;1907;49.238;9.262;2022-07-04T13:09:42;29.60;74.00
3784;DHT22;1907;49.238;9.262;2022-07-04T13:12:09;29.70;75.40
3784;DHT22;1907;49.238;9.262;2022-07-04T13:14:57;29.70;76.10
3784;DHT22;1907;49.238;9.262;2022-07-04T13:17:24;29.70;73.50
3784;DHT22;1907;49.238;9.262;2022-07-04T13:19:50;29.60;75.60
3784;DHT22;1907;49.238;9.262;2022-07-04T13:22:18;29.60;73.00
3784;DHT22;1907;49.238;9.262;2022-07-04T13:24:44;29.60;73.30
3784;DHT22;1907;49.238;9.262;2022-07-04T13:27:10;29.40;72.90
3784;DHT22;1907;49.238;9.262;2022-07-04T13:29:36;29.40;74.20
3784;DHT22;1907;49.238;9.262;2022-07-04T13:32:03;29.40;73.30
3784;DHT22;1907;49.238;9.262;2022-07-04T13:34:29;29.40;72.20
3784;DHT22;1907;49.238;9.262;2022-07-04T13:36:54;29.30;71.20
3784;DHT22;1907;49.238;9.262;2022-07-04T13:39:24;29.30;74.30
3784;DHT22;1907;49.238;9.262;2022-07-04T13:41:49;29.30;72.80
3784;DHT22;1907;49.238;9.262;2022-07-04T13:44:15;29.40;73.40
3784;DHT22;1907;49.238;9.262;2022-07-04T13:46:42;29.40;72.70
3784;DHT22;1907;49.238;9.262;2022-07-04T13:49:08;29.40;73.00
3784;DHT22;1907;49.238;9.262;2022-07-04T13:51:34;29.50;74.00
3784;DHT22;1907;49.238;9.262;2022-07-04T13:54:00;29.50;73.50
3784;DHT22;1907;49.238;9.262;2022-07-04T13:56:26;29.50;73.90
3784;DHT22;1907;49.238;9.262;2022-07-04T13:58:52;29.50;74.00
3784;DHT22;1907;49.238;9.262;2022-07-04T14:01:17;29.40;72.20
3784;DHT22;1907;49.238;9.262;2022-07-04T14:03:47;29.30;72.50
3784;DHT22;1907;49.238;9.262;2022-07-04T14:06:14;29.30;72.20
3784;DHT22;1907;49.238;9.262;2022-07-04T14:08:39;29.20;72.00
3784;DHT22;1907;49.238;9.262;2022-07-04T14:11:05;29.20;70.30
3784;DHT22;1907;49.238;9.262;2022-07-04T14:13:31;29.20;70.80
3784;DHT22;1907;49.238;9.262;2022-07-04T14:15:56;29.10;72.50
3784;DHT22;1907;49.238;9.262;2022-07-04T14:18:22;29.00;72.50
3784;DHT22;1907;49.238;9.262;2022-07-04T14:20:48;28.90;71.70
3784;DHT22;1907;49.238;9.262;2022-07-04T14:23:17;28.90;72.30
3784;DHT22;1907;49.238;9.262;2022-07-04T14:26:01;28.80;68.20
3784;DHT22;1907;49.238;9.262;2022-07-04T14:28:27;28.70;70.40
3784;DHT22;1907;49.238;9.262;2022-07-04T14:30:52;28.80;70.50
3784;DHT22;1907;49.238;9.262;2022-07-04T14:33:18;28.80;70.20
3784;DHT22;1907;49.238;9.262;2022-07-04T14:35:44;28.70;69.70
3784;DHT22;1907;49.238;9.262;2022-07-04T14:38:09;28.80;70.00
3784;DHT22;1907;49.238;9.262;2022-07-04T14:40:35;28.70;71.00
3784;DHT22;1907;49.238;9.262;2022-07-04T14:43:00;28.80;69.80
3784;DHT22;1907;49.238;9.262;2022-07-04T14:45:26;28.80;67.10
3784;DHT22;1907;49.238;9.262;2022-07-04T14:47:52;28.80;65.00
3784;DHT22;1907;49.238;9.262;2022-07-04T14:50:17;28.80;66.30
3784;DHT22;1907;49.238;9.262;2022-07-04T14:52:43;28.80;66.20
3784;DHT22;1907;49.238;9.262;2022-07-04T14:55:08;28.80;65.80
3784;DHT22;1907;49.238;9.262;2022-07-04T14:57:34;28.80;67.50
3784;DHT22;1907;49.238;9.262;2022-07-04T15:00:00;28.80;66.90
3784;DHT22;1907;49.238;9.262;2022-07-04T15:02:25;28.80;67.90
3784;DHT22;1907;49.238;9.262;2022-07-04T15:04:51;28.70;68.00
3784;DHT22;1907;49.238;9.262;2022-07-04T15:07:16;28.70;70.10
3784;DHT22;1907;49.238;9.262;2022-07-04T15:09:42;28.60;68.80
3784;DHT22;1907;49.238;9.262;2022-07-04T15:12:08;28.50;68.20
3784;DHT22;1907;49.238;9.262;2022-07-04T15:14:33;28.50;68.70
3784;DHT22;1907;49.238;9.262;2022-07-04T15:16:59;28.60;69.40
3784;DHT22;1907;49.238;9.262;2022-07-04T15:19:26;28.50;67.40
3784;DHT22;1907;49.238;9.262;2022-07-04T15:21:52;28.50;68.10
3784;DHT22;1907;49.238;9.262;2022-07-04T15:24:36;28.50;68.80
3784;DHT22;1907;49.238;9.262;2022-07-04T15:27:02;28.50;68.90
3784;DHT22;1907;49.238;9.262;2022-07-04T15:29:27;28.30;66.90
3784;DHT22;1907;49.238;9.262;2022-07-04T15:31:54;28.20;68.60
3784;DHT22;1907;49.238;9.262;2022-07-04T15:34:19;28.20;68.40
3784;DHT22;1907;49.238;9.262;2022-07-04T15:36:45;28.30;69.20
3784;DHT22;1907;49.238;9.262;2022-07-04T15:39:14;28.30;68.30
3784;DHT22;1907;49.238;9.262;2022-07-04T15:41:40;28.30;68.90
3784;DHT22;1907;49.238;9.262;2022-07-04T15:44:06;28.20;67.60
3784;DHT22;1907;49.238;9.262;2022-07-04T15:46:33;28.30;68.30
3784;DHT22;1907;49.238;9.262;2022-07-04T15:48:59;28.20;67.50
3784;DHT22;1907;49.238;9.262;2022-07-04T15:51:26;28.10;67.60
3784;DHT22;1907;49.238;9.262;2022-07-04T15:53:52;28.00;69.70
3784;DHT22;1907;49.238;9.262;2022-07-04T15:56:17;28.10;69.90
3784;DHT22;1907;49.238;9.262;2022-07-04T15:58:45;28.10;69.50
3784;DHT22;1907;49.238;9.262;2022-07-04T16:01:11;28.00;69.50
3784;DHT22;1907;49.238;9.262;2022-07-04T16:03:36;28.00;68.70
3784;DHT22;1907;49.238;9.262;2022-07-04T16:06:02;28.00;68.30
3784;DHT22;1907;49.238;9.262;2022-07-04T16:08:28;27.90;69.30
3784;DHT22;1907;49.238;9.262;2022-07-04T16:10:53;27.70;69.40
3784;DHT22;1907;49.238;9.262;2022-07-04T16:13:19;27.60;70.50
3784;DHT22;1907;49.238;9.262;2022-07-04T16:15:45;27.60;71.70
3784;DHT22;1907;49.238;9.262;2022-07-04T16:18:10;27.60;70.70
3784;DHT22;1907;49.238;9.262;2022-07-04T16:20:36;27.60;71.40
3784;DHT22;1907;49.238;9.262;2022-07-04T16:23:01;27.50;71.10
3784;DHT22;1907;49.238;9.262;2022-07-04T16:25:27;27.30;69.60
3784;DHT22;1907;49.238;9.262;2022-07-04T16:27:53;27.30;71.50
3784;DHT22;1907;49.238;9.262;2022-07-04T16:30:18;27.30;70.80
3784;DHT22;1907;49.238;9.262;2022-07-04T16:32:44;27.30;70.40